METAR Data
IDs: Format: Raw Decoded Include TAF

Data at: 0502 UTC 03 Jul 2022

METAR for:KUZA (Rock Hill/Bryant Fld, SC, US)
Text:KUZA 030454Z AUTO 00000KT 10SM CLR 24/22 A3002 RMK AO2 SLP152 T02440217 403220189 $
Temperature: 24.4°C ( 76°F)
Dewpoint: 21.7°C ( 71°F) [RH = 85%]
Pressure (altimeter):30.02 inches Hg (1016.7 mb) [Sea level pressure: 1015.2 mb]
Winds:calm
Visibility:10 or more sm (16+ km)
Ceiling:at least 12,000 feet AGL
Clouds:sky clear below 12,000 feet AGL
QC Flag:automated observation with no human augmentation; SOME DATA ABOVE MAY BE INACCURATE!!!"$" is an indication the sensor requires maintenance.

TAF for:KUZA (Rock Hill/Bryant Fld, SC, US)
Text:No data found